sensor_id;sensor_type;location;lat;lon;timestamp;pressure;altitude;pressure_sealevel;temperature;humidity
76637;BME280;65532;52.124;5.480;2024-03-22T00:01:58;102056.34;;;10.27;100.00
76637;BME280;65532;52.124;5.480;2024-03-22T00:04:23;102054.28;;;10.29;100.00
76637;BME280;65532;52.124;5.480;2024-03-22T00:06:49;102050.34;;;10.32;100.00
76637;BME280;65532;52.124;5.480;2024-03-22T00:09:16;102068.03;;;10.34;100.00
76637;BME280;65532;52.124;5.480;2024-03-22T00:11:42;102043.69;;;10.34;100.00
76637;BME280;65532;52.124;5.480;2024-03-22T00:14:09;102051.59;;;10.36;100.00
76637;BME280;65532;52.124;5.480;2024-03-22T00:16:35;102043.28;;;10.37;100.00
76637;BME280;65532;52.124;5.480;2024-03-22T00:19:01;102037.88;;;10.37;100.00
76637;BME280;65532;52.124;5.480;2024-03-22T00:21:27;102031.41;;;10.38;100.00
76637;BME280;65532;52.124;5.480;2024-03-22T00:23:53;102020.59;;;10.38;100.00
76637;BME280;65532;52.124;5.480;2024-03-22T00:26:19;102013.50;;;10.37;100.00
76637;BME280;65532;52.124;5.480;2024-03-22T00:28:44;102012.88;;;10.35;100.00
76637;BME280;65532;52.124;5.480;2024-03-22T00:31:10;102016.41;;;10.36;100.00
76637;BME280;65532;52.124;5.480;2024-03-22T00:33:36;102011.19;;;10.34;100.00
76637;BME280;65532;52.124;5.480;2024-03-22T00:36:02;102009.53;;;10.33;100.00
76637;BME280;65532;52.124;5.480;2024-03-22T00:38:27;101996.00;;;10.33;100.00
76637;BME280;65532;52.124;5.480;2024-03-22T00:40:53;101994.97;;;10.34;100.00
76637;BME280;65532;52.124;5.480;2024-03-22T00:43:19;101994.97;;;10.34;100.00
76637;BME280;65532;52.124;5.480;2024-03-22T00:45:46;101988.91;;;10.32;100.00
76637;BME280;65532;52.124;5.480;2024-03-22T00:48:11;101981.00;;;10.31;100.00
76637;BME280;65532;52.124;5.480;2024-03-22T00:50:37;101977.47;;;10.30;100.00
76637;BME280;65532;52.124;5.480;2024-03-22T00:53:03;101968.50;;;10.30;100.00
76637;BME280;65532;52.124;5.480;2024-03-22T00:55:30;101965.16;;;10.28;100.00
76637;BME280;65532;52.124;5.480;2024-03-22T00:57:56;101970.59;;;10.28;100.00
76637;BME280;65532;52.124;5.480;2024-03-22T01:00:22;101949.75;;;10.28;100.00
76637;BME280;65532;52.124;5.480;2024-03-22T01:02:49;101955.19;;;10.28;100.00
76637;BME280;65532;52.124;5.480;2024-03-22T01:05:16;101963.94;;;10.30;100.00
76637;BME280;65532;52.124;5.480;2024-03-22T01:07:42;101958.72;;;10.29;100.00
76637;BME280;65532;52.124;5.480;2024-03-22T01:10:07;101959.34;;;10.31;100.00
76637;BME280;65532;52.124;5.480;2024-03-22T01:12:33;101963.94;;;10.30;100.00
76637;BME280;65532;52.124;5.480;2024-03-22T01:14:59;101958.50;;;10.30;100.00
76637;BME280;65532;52.124;5.480;2024-03-22T01:17:24;101944.97;;;10.30;100.00
76637;BME280;65532;52.124;5.480;2024-03-22T01:19:51;101947.69;;;10.30;100.00
76637;BME280;65532;52.124;5.480;2024-03-22T01:22:17;101956.84;;;10.29;100.00
76637;BME280;65532;52.124;5.480;2024-03-22T01:24:43;101949.75;;;10.28;100.00
76637;BME280;65532;52.124;5.480;2024-03-22T01:27:09;101956.00;;;10.29;100.00
76637;BME280;65532;52.124;5.480;2024-03-22T01:29:34;101949.75;;;10.28;100.00
76637;BME280;65532;52.124;5.480;2024-03-22T01:32:01;101956.84;;;10.29;100.00
76637;BME280;65532;52.124;5.480;2024-03-22T01:34:26;101939.97;;;10.27;100.00
76637;BME280;65532;52.124;5.480;2024-03-22T01:36:52;101943.72;;;10.26;100.00
76637;BME280;65532;52.124;5.480;2024-03-22T01:39:21;101935.59;;;10.26;100.00
76637;BME280;65532;52.124;5.480;2024-03-22T01:41:47;101940.19;;;10.26;100.00
76637;BME280;65532;52.124;5.480;2024-03-22T01:44:13;101936.22;;;10.28;100.00
76637;BME280;65532;52.124;5.480;2024-03-22T01:46:40;101933.31;;;10.30;100.00
76637;BME280;65532;52.124;5.480;2024-03-22T01:49:07;101936.44;;;10.33;100.00
76637;BME280;65532;52.124;5.480;2024-03-22T01:51:33;101926.25;;;10.35;100.00
76637;BME280;65532;52.124;5.480;2024-03-22T01:54:01;101924.16;;;10.37;100.00
76637;BME280;65532;52.124;5.480;2024-03-22T01:56:27;101917.50;;;10.40;100.00
76637;BME280;65532;52.124;5.480;2024-03-22T01:58:53;101922.75;;;10.41;100.00
76637;BME280;65532;52.124;5.480;2024-03-22T02:01:20;101919.00;;;10.42;100.00
76637;BME280;65532;52.124;5.480;2024-03-22T02:03:45;101914.41;;;10.43;100.00
76637;BME280;65532;52.124;5.480;2024-03-22T02:06:11;101917.97;;;10.43;100.00
76637;BME280;65532;52.124;5.480;2024-03-22T02:08:36;101921.50;;;10.44;100.00
76637;BME280;65532;52.124;5.480;2024-03-22T02:11:02;101918.16;;;10.42;100.00
76637;BME280;65532;52.124;5.480;2024-03-22T02:13:27;101920.66;;;10.43;100.00
76637;BME280;65532;52.124;5.480;2024-03-22T02:15:53;101916.91;;;10.44;100.00
76637;BME280;65532;52.124;5.480;2024-03-22T02:18:18;101915.03;;;10.45;100.00
76637;BME280;65532;52.124;5.480;2024-03-22T02:20:44;101915.88;;;10.45;100.00
76637;BME280;65532;52.124;5.480;2024-03-22T02:23:10;101907.75;;;10.45;100.00
76637;BME280;65532;52.124;5.480;2024-03-22T02:25:35;101908.59;;;10.46;100.00
76637;BME280;65532;52.124;5.480;2024-03-22T02:28:01;101903.19;;;10.46;100.00
76637;BME280;65532;52.124;5.480;2024-03-22T02:30:26;101894.44;;;10.44;100.00
76637;BME280;65532;52.124;5.480;2024-03-22T02:32:52;101897.97;;;10.44;100.00
76637;BME280;65532;52.124;5.480;2024-03-22T02:35:17;101896.94;;;10.45;100.00
76637;BME280;65532;52.124;5.480;2024-03-22T02:37:43;101886.94;;;10.46;100.00
76637;BME280;65532;52.124;5.480;2024-03-22T02:40:09;101887.75;;;10.46;100.00
76637;BME280;65532;52.124;5.480;2024-03-22T02:42:34;101883.38;;;10.45;100.00
76637;BME280;65532;52.124;5.480;2024-03-22T02:45:00;101883.38;;;10.45;100.00
76637;BME280;65532;52.124;5.480;2024-03-22T02:47:25;101882.34;;;10.46;100.00
76637;BME280;65532;52.124;5.480;2024-03-22T02:49:51;101873.41;;;10.46;100.00
76637;BME280;65532;52.124;5.480;2024-03-22T02:52:16;101877.34;;;10.43;100.00
76637;BME280;65532;52.124;5.480;2024-03-22T02:54:42;101857.56;;;10.43;100.00
76637;BME280;65532;52.124;5.480;2024-03-22T02:57:07;101856.06;;;10.40;100.00
76637;BME280;65532;52.124;5.480;2024-03-22T02:59:33;101847.34;;;10.38;100.00
76637;BME280;65532;52.124;5.480;2024-03-22T03:01:58;101848.38;;;10.37;100.00
76637;BME280;65532;52.124;5.480;2024-03-22T03:04:24;101847.75;;;10.35;100.00
76637;BME280;65532;52.124;5.480;2024-03-22T03:06:50;101840.66;;;10.34;100.00
76637;BME280;65532;52.124;5.480;2024-03-22T03:09:15;101827.56;;;10.31;100.00
76637;BME280;65532;52.124;5.480;2024-03-22T03:11:41;101821.31;;;10.31;100.00
76637;BME280;65532;52.124;5.480;2024-03-22T03:14:06;101829.00;;;10.27;100.00
76637;BME280;65532;52.124;5.480;2024-03-22T03:16:32;101812.53;;;10.22;100.00
76637;BME280;65532;52.124;5.480;2024-03-22T03:18:58;101812.06;;;10.18;100.00
76637;BME280;65532;52.124;5.480;2024-03-22T03:21:24;101808.13;;;10.14;100.00
76637;BME280;65532;52.124;5.480;2024-03-22T03:23:49;101817.50;;;10.12;100.00
76637;BME280;65532;52.124;5.480;2024-03-22T03:26:15;101810.16;;;10.06;100.00
76637;BME280;65532;52.124;5.480;2024-03-22T03:28:40;101807.66;;;10.04;100.00
76637;BME280;65532;52.124;5.480;2024-03-22T03:31:06;101801.00;;;10.00;100.00
76637;BME280;65532;52.124;5.480;2024-03-22T03:33:32;101811.00;;;10.00;100.00
76637;BME280;65532;52.124;5.480;2024-03-22T03:35:57;101802.25;;;9.98;100.00
76637;BME280;65532;52.124;5.480;2024-03-22T03:38:23;101797.03;;;9.96;100.00
76637;BME280;65532;52.124;5.480;2024-03-22T03:40:48;101788.09;;;9.96;100.00
76637;BME280;65532;52.124;5.480;2024-03-22T03:43:14;101780.78;;;9.89;100.00
76637;BME280;65532;52.124;5.480;2024-03-22T03:45:39;101780.16;;;9.87;100.00
76637;BME280;65532;52.124;5.480;2024-03-22T03:48:05;101779.72;;;9.84;100.00
76637;BME280;65532;52.124;5.480;2024-03-22T03:50:31;101768.91;;;9.84;100.00
76637;BME280;65532;52.124;5.480;2024-03-22T03:52:57;101764.75;;;9.81;100.00
76637;BME280;65532;52.124;5.480;2024-03-22T03:55:23;101766.00;;;9.79;100.00
76637;BME280;65532;52.124;5.480;2024-03-22T03:57:51;101766.16;;;9.77;100.00
76637;BME280;65532;52.124;5.480;2024-03-22T04:00:19;101762.84;;;9.75;100.00
76637;BME280;65532;52.124;5.480;2024-03-22T04:02:45;101761.59;;;9.71;100.00
76637;BME280;65532;52.124;5.480;2024-03-22T04:05:10;101769.28;;;9.68;100.00
76637;BME280;65532;52.124;5.480;2024-03-22T04:07:36;101765.09;;;9.65;100.00
76637;BME280;65532;52.124;5.480;2024-03-22T04:10:02;101766.97;;;9.65;100.00
76637;BME280;65532;52.124;5.480;2024-03-22T04:12:28;101750.97;;;9.63;100.00
76637;BME280;65532;52.124;5.480;2024-03-22T04:14:54;101761.94;;;9.61;100.00
76637;BME280;65532;52.124;5.480;2024-03-22T04:17:20;101760.50;;;9.59;100.00
76637;BME280;65532;52.124;5.480;2024-03-22T04:19:45;101759.66;;;9.58;100.00
76637;BME280;65532;52.124;5.480;2024-03-22T04:22:11;101769.63;;;9.58;100.00
76637;BME280;65532;52.124;5.480;2024-03-22T04:24:36;101768.81;;;9.57;100.00
76637;BME280;65532;52.124;5.480;2024-03-22T04:27:02;101767.97;;;9.57;100.00
76637;BME280;65532;52.124;5.480;2024-03-22T04:29:27;101771.50;;;9.57;100.00
76637;BME280;65532;52.124;5.480;2024-03-22T04:31:53;101769.00;;;9.56;100.00
76637;BME280;65532;52.124;5.480;2024-03-22T04:34:19;101763.41;;;9.57;100.00
76637;BME280;65532;52.124;5.480;2024-03-22T04:36:44;101755.50;;;9.56;100.00
76637;BME280;65532;52.124;5.480;2024-03-22T04:39:10;101752.16;;;9.54;100.00
76637;BME280;65532;52.124;5.480;2024-03-22T04:41:37;101758.59;;;9.53;100.00
76637;BME280;65532;52.124;5.480;2024-03-22T04:44:03;101759.84;;;9.50;100.00
76637;BME280;65532;52.124;5.480;2024-03-22T04:46:29;101758.19;;;9.49;100.00
76637;BME280;65532;52.124;5.480;2024-03-22T04:48:54;101771.50;;;9.51;100.00
76637;BME280;65532;52.124;5.480;2024-03-22T04:51:20;101754.66;;;9.49;100.00
76637;BME280;65532;52.124;5.480;2024-03-22T04:53:45;101758.38;;;9.48;100.00
76637;BME280;65532;52.124;5.480;2024-03-22T04:56:11;101764.16;;;9.45;100.00
76637;BME280;65532;52.124;5.480;2024-03-22T04:58:36;101763.34;;;9.44;100.00
76637;BME280;65532;52.124;5.480;2024-03-22T05:01:02;101760.84;;;9.43;100.00
76637;BME280;65532;52.124;5.480;2024-03-22T05:03:28;101760.84;;;9.43;100.00
76637;BME280;65532;52.124;5.480;2024-03-22T05:05:53;101760.00;;;9.42;100.00
76637;BME280;65532;52.124;5.480;2024-03-22T05:08:20;101765.41;;;9.42;100.00
76637;BME280;65532;52.124;5.480;2024-03-22T05:10:45;101764.56;;;9.42;100.00
76637;BME280;65532;52.124;5.480;2024-03-22T05:13:11;101767.47;;;9.40;100.00
76637;BME280;65532;52.124;5.480;2024-03-22T05:15:36;101762.91;;;9.41;100.00
76637;BME280;65532;52.124;5.480;2024-03-22T05:18:02;101757.50;;;9.41;100.00
76637;BME280;65532;52.124;5.480;2024-03-22T05:20:28;101756.66;;;9.40;100.00
76637;BME280;65532;52.124;5.480;2024-03-22T05:22:54;101743.16;;;9.40;100.00
76637;BME280;65532;52.124;5.480;2024-03-22T05:25:20;101755.84;;;9.40;100.00
76637;BME280;65532;52.124;5.480;2024-03-22T05:27:46;101757.50;;;9.41;100.00
76637;BME280;65532;52.124;5.480;2024-03-22T05:30:12;101749.41;;;9.41;100.00
76637;BME280;65532;52.124;5.480;2024-03-22T05:32:38;101754.81;;;9.41;100.00
76637;BME280;65532;52.124;5.480;2024-03-22T05:35:05;101747.53;;;9.41;100.00
76637;BME280;65532;52.124;5.480;2024-03-22T05:37:31;101745.03;;;9.40;100.00
76637;BME280;65532;52.124;5.480;2024-03-22T05:39:56;101740.44;;;9.40;100.00
76637;BME280;65532;52.124;5.480;2024-03-22T05:42:22;101739.63;;;9.40;100.00
76637;BME280;65532;52.124;5.480;2024-03-22T05:44:48;101736.91;;;9.40;100.00
76637;BME280;65532;52.124;5.480;2024-03-22T05:47:13;101731.50;;;9.40;100.00
76637;BME280;65532;52.124;5.480;2024-03-22T05:49:39;101732.56;;;9.39;100.00
76637;BME280;65532;52.124;5.480;2024-03-22T05:52:05;101728.81;;;9.40;100.00
76637;BME280;65532;52.124;5.480;2024-03-22T05:54:30;101733.59;;;9.38;100.00
76637;BME280;65532;52.124;5.480;2024-03-22T05:56:56;101738.38;;;9.36;100.00
76637;BME280;65532;52.124;5.480;2024-03-22T05:59:21;101725.88;;;9.35;100.00
76637;BME280;65532;52.124;5.480;2024-03-22T06:01:47;101724.84;;;9.36;100.00
76637;BME280;65532;52.124;5.480;2024-03-22T06:04:12;101714.88;;;9.36;100.00
76637;BME280;65532;52.124;5.480;2024-03-22T06:06:38;101716.53;;;9.37;100.00
76637;BME280;65532;52.124;5.480;2024-03-22T06:09:04;101717.38;;;9.38;100.00
76637;BME280;65532;52.124;5.480;2024-03-22T06:11:34;101714.47;;;9.39;100.00
76637;BME280;65532;52.124;5.480;2024-03-22T06:13:59;101718.84;;;9.40;100.00
76637;BME280;65532;52.124;5.480;2024-03-22T06:16:25;101716.75;;;9.42;100.00
76637;BME280;65532;52.124;5.480;2024-03-22T06:18:51;101711.16;;;9.44;100.00
76637;BME280;65532;52.124;5.480;2024-03-22T06:21:16;101707.41;;;9.45;100.00
76637;BME280;65532;52.124;5.480;2024-03-22T06:23:50;101711.78;;;9.46;100.00
76637;BME280;65532;52.124;5.480;2024-03-22T06:26:16;101711.78;;;9.46;100.00
76637;BME280;65532;52.124;5.480;2024-03-22T06:28:42;101709.72;;;9.48;100.00
76637;BME280;65532;52.124;5.480;2024-03-22T06:31:08;101702.47;;;9.48;100.00
76637;BME280;65532;52.124;5.480;2024-03-22T06:33:34;101697.88;;;9.49;100.00
76637;BME280;65532;52.124;5.480;2024-03-22T06:35:59;101701.22;;;9.51;100.00
76637;BME280;65532;52.124;5.480;2024-03-22T06:38:25;101704.53;;;9.53;100.00
76637;BME280;65532;52.124;5.480;2024-03-22T06:40:51;101710.56;;;9.55;100.00
76637;BME280;65532;52.124;5.480;2024-03-22T06:43:17;101699.34;;;9.58;100.00
76637;BME280;65532;52.124;5.480;2024-03-22T06:45:42;101701.00;;;9.59;100.00
76637;BME280;65532;52.124;5.480;2024-03-22T06:48:08;101698.56;;;9.64;100.00
76637;BME280;65532;52.124;5.480;2024-03-22T06:50:33;101705.41;;;9.67;100.00
76637;BME280;65532;52.124;5.480;2024-03-22T06:52:59;101700.63;;;9.69;100.00
76637;BME280;65532;52.124;5.480;2024-03-22T06:55:24;101706.47;;;9.72;100.00
76637;BME280;65532;52.124;5.480;2024-03-22T06:57:50;101709.38;;;9.77;100.00
76637;BME280;65532;52.124;5.480;2024-03-22T07:00:17;101706.09;;;9.82;100.00
76637;BME280;65532;52.124;5.480;2024-03-22T07:02:43;101711.50;;;9.88;100.00
76637;BME280;65532;52.124;5.480;2024-03-22T07:05:10;101698.19;;;9.94;100.00
76637;BME280;65532;52.124;5.480;2024-03-22T07:07:36;101707.97;;;9.95;100.00
76637;BME280;65532;52.124;5.480;2024-03-22T07:10:03;101710.91;;;10.00;100.00
76637;BME280;65532;52.124;5.480;2024-03-22T07:12:33;101701.75;;;10.01;100.00
76637;BME280;65532;52.124;5.480;2024-03-22T07:15:00;101715.25;;;10.07;100.00
76637;BME280;65532;52.124;5.480;2024-03-22T07:17:26;101707.16;;;10.07;100.00
76637;BME280;65532;52.124;5.480;2024-03-22T07:19:52;101706.94;;;10.09;100.00
76637;BME280;65532;52.124;5.480;2024-03-22T07:22:18;101709.03;;;10.07;100.00
76637;BME280;65532;52.124;5.480;2024-03-22T07:24:44;101704.66;;;10.06;100.00
76637;BME280;65532;52.124;5.480;2024-03-22T07:27:10;101712.34;;;10.09;100.00
76637;BME280;65532;52.124;5.480;2024-03-22T07:29:36;101711.13;;;10.11;100.00
76637;BME280;65532;52.124;5.480;2024-03-22T07:32:01;101710.28;;;10.11;100.00
76637;BME280;65532;52.124;5.480;2024-03-22T07:34:28;101711.13;;;10.11;100.00
76637;BME280;65532;52.124;5.480;2024-03-22T07:36:54;101709.25;;;10.12;100.00
76637;BME280;65532;52.124;5.480;2024-03-22T07:39:20;101714.88;;;10.10;100.00
76637;BME280;65532;52.124;5.480;2024-03-22T07:41:45;101709.47;;;10.10;100.00
76637;BME280;65532;52.124;5.480;2024-03-22T07:44:11;101711.72;;;10.07;100.00
76637;BME280;65532;52.124;5.480;2024-03-22T07:46:36;101711.09;;;10.05;100.00
76637;BME280;65532;52.124;5.480;2024-03-22T07:49:02;101703.59;;;10.07;100.00
76637;BME280;65532;52.124;5.480;2024-03-22T07:51:30;101701.72;;;10.07;100.00
76637;BME280;65532;52.124;5.480;2024-03-22T07:53:55;101702.78;;;10.06;100.00
76637;BME280;65532;52.124;5.480;2024-03-22T07:56:21;101700.28;;;10.05;100.00
76637;BME280;65532;52.124;5.480;2024-03-22T07:58:47;101698.81;;;10.02;100.00
76637;BME280;65532;52.124;5.480;2024-03-22T08:01:12;101703.19;;;10.03;100.00
76637;BME280;65532;52.124;5.480;2024-03-22T08:03:38;101705.69;;;10.05;100.00
76637;BME280;65532;52.124;5.480;2024-03-22T08:06:04;101704.03;;;10.04;100.00
76637;BME280;65532;52.124;5.480;2024-03-22T08:08:29;101704.03;;;10.04;100.00
76637;BME280;65532;52.124;5.480;2024-03-22T08:10:55;101705.06;;;10.03;100.00
76637;BME280;65532;52.124;5.480;2024-03-22T08:13:21;101703.19;;;10.03;100.00
76637;BME280;65532;52.124;5.480;2024-03-22T08:15:46;101696.53;;;10.06;100.00
76637;BME280;65532;52.124;5.480;2024-03-22T08:18:12;101702.78;;;10.06;100.00
76637;BME280;65532;52.124;5.480;2024-03-22T08:20:38;101706.53;;;10.05;100.00
76637;BME280;65532;52.124;5.480;2024-03-22T08:23:07;101700.28;;;10.05;100.00
76637;BME280;65532;52.124;5.480;2024-03-22T08:25:33;101694.44;;;10.08;100.00
76637;BME280;65532;52.124;5.480;2024-03-22T08:27:59;101700.69;;;10.08;100.00
76637;BME280;65532;52.124;5.480;2024-03-22T08:30:25;101695.50;;;10.07;100.00
76637;BME280;65532;52.124;5.480;2024-03-22T08:32:52;101700.28;;;10.05;100.00
76637;BME280;65532;52.124;5.480;2024-03-22T08:35:17;101696.94;;;10.03;100.00
76637;BME280;65532;52.124;5.480;2024-03-22T08:37:43;101697.78;;;9.97;100.00
76637;BME280;65532;52.124;5.480;2024-03-22T08:40:09;101696.50;;;9.93;100.00
76637;BME280;65532;52.124;5.480;2024-03-22T08:42:36;101698.81;;;9.89;100.00
76637;BME280;65532;52.124;5.480;2024-03-22T08:45:02;101697.13;;;9.88;100.00
76637;BME280;65532;52.124;5.480;2024-03-22T08:47:30;101694.44;;;9.88;100.00
76637;BME280;65532;52.124;5.480;2024-03-22T08:49:55;101690.91;;;9.87;100.00
76637;BME280;65532;52.124;5.480;2024-03-22T08:52:23;101698.19;;;9.87;100.00
76637;BME280;65532;52.124;5.480;2024-03-22T08:54:52;101694.84;;;9.85;100.00
76637;BME280;65532;52.124;5.480;2024-03-22T08:57:18;101686.94;;;9.83;100.00
76637;BME280;65532;52.124;5.480;2024-03-22T08:59:45;101689.44;;;9.85;100.00
76637;BME280;65532;52.124;5.480;2024-03-22T09:02:10;101685.06;;;9.84;100.00
76637;BME280;65532;52.124;5.480;2024-03-22T09:04:37;101690.69;;;9.82;100.00
76637;BME280;65532;52.124;5.480;2024-03-22T09:07:03;101690.69;;;9.82;100.00
76637;BME280;65532;52.124;5.480;2024-03-22T09:09:28;101690.28;;;9.85;100.00
76637;BME280;65532;52.124;5.480;2024-03-22T09:11:54;101695.06;;;9.83;100.00
76637;BME280;65532;52.124;5.480;2024-03-22T09:14:19;101687.78;;;9.84;100.00
76637;BME280;65532;52.124;5.480;2024-03-22T09:16:45;101685.28;;;9.82;100.00
76637;BME280;65532;52.124;5.480;2024-03-22T09:19:11;101687.34;;;9.80;100.00
76637;BME280;65532;52.124;5.480;2024-03-22T09:21:37;101689.03;;;9.81;100.00
76637;BME280;65532;52.124;5.480;2024-03-22T09:24:02;101695.06;;;9.83;100.00
76637;BME280;65532;52.124;5.480;2024-03-22T09:26:34;101689.66;;;9.83;100.00
76637;BME280;65532;52.124;5.480;2024-03-22T09:29:00;101682.38;;;9.84;100.00
76637;BME280;65532;52.124;5.480;2024-03-22T09:31:26;101674.66;;;9.87;100.00
76637;BME280;65532;52.124;5.480;2024-03-22T09:33:52;101671.53;;;9.90;100.00
76637;BME280;65532;52.124;5.480;2024-03-22T09:36:18;101679.66;;;9.90;100.00
76637;BME280;65532;52.124;5.480;2024-03-22T09:38:43;101676.94;;;9.90;100.00
76637;BME280;65532;52.124;5.480;2024-03-22T09:41:09;101679.69;;;9.97;100.00
76637;BME280;65532;52.124;5.480;2024-03-22T09:43:34;101680.09;;;10.01;100.00
76637;BME280;65532;52.124;5.480;2024-03-22T09:46:01;101676.56;;;10.00;100.00
76637;BME280;65532;52.124;5.480;2024-03-22T09:48:28;101673.22;;;9.98;100.00
76637;BME280;65532;52.124;5.480;2024-03-22T09:50:54;101671.34;;;9.92;100.00
76637;BME280;65532;52.124;5.480;2024-03-22T09:53:21;101673.22;;;9.91;100.00
76637;BME280;65532;52.124;5.480;2024-03-22T09:55:49;101673.44;;;9.97;100.00
76637;BME280;65532;52.124;5.480;2024-03-22T09:58:15;101674.47;;;10.02;100.00
76637;BME280;65532;52.124;5.480;2024-03-22T10:00:44;101674.25;;;10.04;100.00
76637;BME280;65532;52.124;5.480;2024-03-22T10:03:10;101664.50;;;10.03;100.00
76637;BME280;65532;52.124;5.480;2024-03-22T10:05:36;101669.91;;;10.03;100.00
76637;BME280;65532;52.124;5.480;2024-03-22T10:08:05;101669.69;;;9.98;100.00
76637;BME280;65532;52.124;5.480;2024-03-22T10:10:32;101666.16;;;9.97;100.00
76637;BME280;65532;52.124;5.480;2024-03-22T10:13:03;101672.81;;;9.95;100.00
76637;BME280;65532;52.124;5.480;2024-03-22T10:15:30;101663.00;;;9.94;100.00
76637;BME280;65532;52.124;5.480;2024-03-22T10:17:59;101665.31;;;9.97;100.00
76637;BME280;65532;52.124;5.480;2024-03-22T10:20:25;101657.41;;;10.02;100.00
76637;BME280;65532;52.124;5.480;2024-03-22T10:22:58;101660.31;;;10.07;100.00
76637;BME280;65532;52.124;5.480;2024-03-22T10:25:25;101659.06;;;10.09;100.00
76637;BME280;65532;52.124;5.480;2024-03-22T10:27:51;101654.53;;;10.10;100.00
76637;BME280;65532;52.124;5.480;2024-03-22T10:30:17;101649.09;;;10.10;100.00
76637;BME280;65532;52.124;5.480;2024-03-22T10:32:43;101653.25;;;10.19;100.00
76637;BME280;65532;52.124;5.480;2024-03-22T10:35:13;101654.28;;;10.18;100.00
76637;BME280;65532;52.124;5.480;2024-03-22T10:37:40;101659.09;;;10.16;100.00
76637;BME280;65532;52.124;5.480;2024-03-22T10:40:06;101661.59;;;10.17;100.00
76637;BME280;65532;52.124;5.480;2024-03-22T10:42:37;101654.09;;;10.19;100.00
76637;BME280;65532;52.124;5.480;2024-03-22T10:45:03;101658.66;;;10.19;100.00
76637;BME280;65532;52.124;5.480;2024-03-22T10:47:31;101651.59;;;10.18;100.00
76637;BME280;65532;52.124;5.480;2024-03-22T10:50:07;101663.88;;;10.14;100.00
76637;BME280;65532;52.124;5.480;2024-03-22T10:53:01;101656.81;;;10.13;100.00
76637;BME280;65532;52.124;5.480;2024-03-22T10:55:32;101658.25;;;10.15;100.00
76637;BME280;65532;52.124;5.480;2024-03-22T10:57:58;101654.91;;;10.20;100.00
76637;BME280;65532;52.124;5.480;2024-03-22T11:00:31;101657.22;;;10.16;100.00
76637;BME280;65532;52.124;5.480;2024-03-22T11:02:57;101656.81;;;10.13;100.00
76637;BME280;65532;52.124;5.480;2024-03-22T11:05:23;101650.34;;;10.14;100.00
76637;BME280;65532;52.124;5.480;2024-03-22T11:08:02;101653.66;;;10.16;100.00
76637;BME280;65532;52.124;5.480;2024-03-22T11:10:30;101656.59;;;10.21;100.00
76637;BME280;65532;52.124;5.480;2024-03-22T11:13:01;101643.31;;;10.26;100.00
76637;BME280;65532;52.124;5.480;2024-03-22T11:15:28;101640.78;;;10.31;100.00
76637;BME280;65532;52.124;5.480;2024-03-22T11:17:54;101645.56;;;10.36;100.00
76637;BME280;65532;52.124;5.480;2024-03-22T11:20:20;101639.50;;;10.40;100.00
76637;BME280;65532;52.124;5.480;2024-03-22T11:22:46;101640.78;;;10.44;100.00
76637;BME280;65532;52.124;5.480;2024-03-22T11:25:11;101629.72;;;10.53;100.00
76637;BME280;65532;52.124;5.480;2024-03-22T11:27:37;101626.56;;;10.56;100.00
76637;BME280;65532;52.124;5.480;2024-03-22T11:30:03;101627.41;;;10.63;100.00
76637;BME280;65532;52.124;5.480;2024-03-22T11:32:29;101627.38;;;10.69;100.00
76637;BME280;65532;52.124;5.480;2024-03-22T11:34:56;101629.03;;;10.77;100.00
76637;BME280;65532;52.124;5.480;2024-03-22T11:37:22;101629.00;;;10.84;100.00
76637;BME280;65532;52.124;5.480;2024-03-22T11:39:48;101620.44;;;10.87;100.00
76637;BME280;65532;52.124;5.480;2024-03-22T11:42:14;101625.88;;;10.87;100.00
76637;BME280;65532;52.124;5.480;2024-03-22T11:44:40;101615.84;;;10.87;100.00
76637;BME280;65532;52.124;5.480;2024-03-22T11:47:06;101613.16;;;10.87;100.00
76637;BME280;65532;52.124;5.480;2024-03-22T11:49:32;101608.56;;;10.94;100.00
76637;BME280;65532;52.124;5.480;2024-03-22T11:51:57;101603.34;;;10.93;100.00
76637;BME280;65532;52.124;5.480;2024-03-22T11:54:23;101608.38;;;10.89;100.00
76637;BME280;65532;52.124;5.480;2024-03-22T11:56:51;101609.81;;;10.85;100.00
76637;BME280;65532;52.124;5.480;2024-03-22T11:59:20;101605.03;;;10.87;100.00
76637;BME280;65532;52.124;5.480;2024-03-22T12:01:47;101608.16;;;10.84;100.00
76637;BME280;65532;52.124;5.480;2024-03-22T12:04:12;101599.88;;;10.79;100.00
76637;BME280;65532;52.124;5.480;2024-03-22T12:06:46;101607.38;;;10.77;100.00
76637;BME280;65532;52.124;5.480;2024-03-22T12:09:12;101611.75;;;10.78;100.00
76637;BME280;65532;52.124;5.480;2024-03-22T12:11:39;101604.06;;;10.75;100.00
76637;BME280;65532;52.124;5.480;2024-03-22T12:14:05;101597.38;;;10.71;100.00
76637;BME280;65532;52.124;5.480;2024-03-22T12:16:30;101595.53;;;10.65;100.00
76637;BME280;65532;52.124;5.480;2024-03-22T12:18:56;101597.00;;;10.61;100.00
76637;BME280;65532;52.124;5.480;2024-03-22T12:21:21;101598.88;;;10.54;100.00
76637;BME280;65532;52.124;5.480;2024-03-22T12:23:47;101603.06;;;10.49;100.00
76637;BME280;65532;52.124;5.480;2024-03-22T12:26:13;101596.59;;;10.50;100.00
76637;BME280;65532;52.124;5.480;2024-03-22T12:28:39;101597.84;;;10.55;100.00
76637;BME280;65532;52.124;5.480;2024-03-22T12:31:04;101603.69;;;10.52;100.00
76637;BME280;65532;52.124;5.480;2024-03-22T12:33:30;101597.03;;;10.47;100.00
76637;BME280;65532;52.124;5.480;2024-03-22T12:35:56;101595.38;;;10.46;100.00
76637;BME280;65532;52.124;5.480;2024-03-22T12:38:21;101595.38;;;10.46;100.00